createdAt,value
2018-08-04T00:01:24.758Z,99.90
2018-08-04T00:03:53.739Z,99.90
2018-08-04T00:06:22.728Z,99.90
2018-08-04T00:08:51.687Z,99.90
2018-08-04T00:11:20.651Z,99.90
2018-08-04T00:13:49.670Z,99.90
2018-08-04T00:16:18.715Z,99.90
2018-08-04T00:18:47.647Z,99.90
2018-08-04T00:21:16.642Z,99.90
2018-08-04T00:23:45.620Z,99.90
2018-08-04T00:26:14.596Z,99.90
2018-08-04T00:28:43.570Z,99.90
2018-08-04T00:31:12.542Z,99.90
2018-08-04T00:33:41.519Z,99.90
2018-08-04T00:36:10.468Z,99.90
2018-08-04T00:38:40.012Z,99.90
2018-08-04T00:41:09.320Z,99.90
2018-08-04T00:43:38.280Z,99.90
2018-08-04T00:46:07.243Z,99.90
2018-08-04T00:48:36.198Z,99.90
2018-08-04T00:51:05.259Z,99.90
2018-08-04T00:53:34.223Z,99.90
2018-08-04T00:56:03.207Z,99.90
2018-08-04T00:58:32.175Z,99.90
2018-08-04T01:01:01.200Z,99.90
2018-08-04T01:03:30.151Z,99.90
2018-08-04T01:05:59.125Z,99.90
2018-08-04T01:08:28.110Z,99.90
2018-08-04T01:10:57.158Z,99.90
2018-08-04T01:13:26.139Z,99.90
2018-08-04T01:15:55.131Z,99.90
2018-08-04T01:18:24.064Z,99.90
2018-08-04T01:20:53.163Z,99.90
2018-08-04T01:23:22.116Z,99.90
2018-08-04T01:25:51.099Z,99.90
2018-08-04T01:28:20.195Z,99.90
2018-08-04T01:30:49.143Z,99.90
2018-08-04T01:33:18.116Z,99.90
2018-08-04T01:35:47.102Z,99.90
2018-08-04T01:38:16.101Z,99.90
2018-08-04T01:40:45.251Z,99.90
2018-08-04T01:43:14.215Z,99.90
2018-08-04T01:45:43.166Z,99.90
2018-08-04T01:48:12.123Z,99.90
2018-08-04T01:50:41.072Z,99.90
2018-08-04T01:53:10.090Z,99.90
2018-08-04T01:55:39.055Z,99.90
2018-08-04T01:58:08.043Z,99.90
2018-08-04T02:00:36.992Z,99.90
2018-08-04T02:03:05.955Z,99.90
2018-08-04T02:05:35.138Z,99.90
2018-08-04T02:08:04.083Z,99.90
2018-08-04T02:10:33.118Z,99.90
2018-08-04T02:13:02.076Z,99.90
2018-08-04T02:15:31.066Z,99.90
2018-08-04T02:18:00.047Z,99.90
2018-08-04T02:20:28.996Z,99.90
2018-08-04T02:22:57.959Z,99.90
2018-08-04T02:25:26.935Z,99.90
2018-08-04T02:27:56.000Z,99.90
2018-08-04T02:30:24.931Z,99.90
2018-08-04T02:32:53.869Z,99.90
2018-08-04T02:35:22.848Z,99.90
2018-08-04T02:37:51.814Z,99.90
2018-08-04T02:40:20.796Z,99.90
2018-08-04T02:42:55.686Z,99.90
2018-08-04T02:45:30.734Z,99.90
2018-08-04T02:47:59.727Z,99.90
2018-08-04T02:50:28.716Z,99.90
2018-08-04T02:52:57.730Z,99.90
2018-08-04T02:55:26.694Z,99.90
2018-08-04T02:57:55.681Z,99.90
2018-08-04T03:00:24.638Z,99.90
2018-08-04T03:02:53.575Z,99.90
2018-08-04T03:05:22.547Z,99.90
2018-08-04T03:07:52.294Z,99.90
2018-08-04T03:10:21.255Z,99.90
2018-08-04T03:12:50.189Z,99.90
2018-08-04T03:15:19.155Z,99.90
2018-08-04T03:17:48.127Z,99.90
2018-08-04T03:22:45.749Z,99.90
2018-08-04T03:25:14.675Z,99.90
2018-08-04T03:27:43.646Z,99.90
2018-08-04T03:30:12.606Z,99.90
2018-08-04T03:32:41.579Z,99.90
2018-08-04T03:35:10.568Z,99.90
2018-08-04T03:37:39.536Z,99.90
2018-08-04T03:40:08.543Z,99.90
2018-08-04T03:42:37.502Z,99.90
2018-08-04T03:45:06.682Z,99.90
2018-08-04T03:47:35.697Z,99.90
2018-08-04T03:50:05.428Z,99.90
2018-08-04T03:52:34.387Z,99.90
2018-08-04T03:55:03.414Z,99.90
2018-08-04T03:57:32.403Z,99.90
2018-08-04T04:00:01.375Z,99.90
2018-08-04T04:02:30.319Z,99.90
2018-08-04T04:04:59.267Z,99.90
2018-08-04T04:07:28.214Z,99.90
2018-08-04T04:09:57.187Z,99.90
2018-08-04T04:12:26.226Z,99.90
2018-08-04T04:14:55.198Z,99.90
2018-08-04T04:17:24.175Z,99.90
2018-08-04T04:19:53.134Z,99.90
2018-08-04T04:22:22.104Z,99.90
2018-08-04T04:24:51.125Z,99.90
2018-08-04T04:27:20.075Z,99.90
2018-08-04T04:29:49.015Z,99.90
2018-08-04T04:32:17.995Z,99.90
2018-08-04T04:34:46.988Z,99.90
2018-08-04T04:37:15.928Z,99.90
2018-08-04T04:39:44.887Z,99.90
2018-08-04T04:42:13.847Z,99.90
2018-08-04T04:44:42.816Z,99.90
2018-08-04T04:47:11.910Z,99.90
2018-08-04T04:49:40.888Z,99.90
2018-08-04T04:52:09.835Z,99.90
2018-08-04T04:54:38.842Z,99.90
2018-08-04T04:57:07.802Z,99.90
2018-08-04T04:59:36.782Z,99.90
2018-08-04T05:02:06.023Z,99.90
2018-08-04T05:04:34.954Z,99.90
2018-08-04T05:07:03.979Z,99.90
2018-08-04T05:09:32.960Z,99.90
2018-08-04T05:12:01.965Z,99.90
2018-08-04T05:14:30.939Z,99.90
2018-08-04T05:17:00.024Z,99.90
2018-08-04T05:19:28.988Z,99.90
2018-08-04T05:21:57.959Z,99.90
2018-08-04T05:24:27.083Z,99.90
2018-08-04T05:26:56.015Z,99.90
2018-08-04T05:29:24.995Z,99.90
2018-08-04T05:31:53.984Z,99.90
2018-08-04T05:34:23.057Z,99.90
2018-08-04T05:36:52.032Z,99.90
2018-08-04T05:39:21.011Z,99.90
2018-08-04T05:41:49.971Z,99.90
2018-08-04T05:44:18.955Z,99.90
2018-08-04T05:46:47.905Z,99.90
2018-08-04T05:49:16.859Z,99.90
2018-08-04T05:51:45.831Z,99.90
2018-08-04T05:54:14.819Z,99.90
2018-08-04T05:56:43.780Z,99.90
2018-08-04T05:59:12.754Z,99.90
2018-08-04T06:01:42.088Z,99.90
2018-08-04T06:04:11.060Z,99.90
2018-08-04T06:06:40.062Z,99.90
2018-08-04T06:09:10.198Z,99.90
2018-08-04T06:11:39.790Z,99.90
2018-08-04T06:14:08.751Z,99.90
2018-08-04T06:16:37.779Z,99.90
2018-08-04T06:19:06.750Z,99.90
2018-08-04T06:21:35.725Z,99.90
2018-08-04T06:24:04.677Z,99.90
2018-08-04T06:26:33.647Z,99.90
2018-08-04T06:29:02.695Z,99.90
2018-08-04T06:31:31.664Z,99.90
2018-08-04T06:34:00.639Z,99.90
2018-08-04T06:36:29.648Z,99.90
2018-08-04T06:38:58.582Z,99.90
2018-08-04T06:41:27.616Z,99.90
2018-08-04T06:43:56.601Z,99.90
2018-08-04T06:46:25.568Z,99.90
2018-08-04T06:48:54.807Z,99.90
2018-08-04T06:51:23.810Z,99.90
2018-08-04T06:53:52.832Z,99.90
2018-08-04T06:56:21.779Z,99.90
2018-08-04T06:58:50.795Z,99.90
2018-08-04T07:01:19.845Z,99.90
2018-08-04T07:03:48.807Z,99.90
2018-08-04T07:06:17.755Z,99.90
2018-08-04T07:08:46.750Z,99.90
2018-08-04T07:11:16.037Z,99.90
2018-08-04T07:13:45.015Z,99.90
2018-08-04T07:16:14.124Z,99.90
2018-08-04T07:18:43.093Z,99.90
2018-08-04T07:21:12.058Z,99.90
2018-08-04T07:23:41.035Z,99.90
2018-08-04T07:26:10.013Z,99.90
2018-08-04T07:28:38.998Z,99.90
2018-08-04T07:31:08.147Z,99.90
2018-08-04T07:33:37.106Z,99.90
2018-08-04T07:36:06.070Z,99.90
2018-08-04T07:38:35.055Z,99.90
2018-08-04T07:41:04.037Z,99.90
2018-08-04T07:43:32.999Z,99.90
2018-08-04T07:46:01.983Z,99.90
2018-08-04T07:48:30.972Z,99.90
2018-08-04T07:50:59.899Z,99.90
2018-08-04T07:53:28.883Z,99.90
2018-08-04T07:55:57.884Z,99.90
2018-08-04T07:58:26.814Z,99.90
2018-08-04T08:00:55.795Z,99.90
2018-08-04T08:03:24.763Z,99.90
2018-08-04T08:05:53.824Z,99.90
2018-08-04T08:08:22.827Z,99.90
2018-08-04T08:10:51.944Z,99.90
2018-08-04T08:13:20.785Z,99.90
2018-08-04T08:15:49.756Z,99.90
2018-08-04T08:18:18.699Z,99.90
2018-08-04T08:20:47.643Z,99.90
2018-08-04T08:23:16.626Z,99.90
2018-08-04T08:26:00.923Z,99.90
2018-08-04T08:28:29.913Z,99.90
2018-08-04T08:30:58.850Z,99.90
2018-08-04T08:33:27.798Z,99.90
2018-08-04T08:35:56.768Z,99.90
2018-08-04T08:38:25.728Z,99.90
2018-08-04T08:40:54.723Z,99.90
2018-08-04T08:43:23.791Z,99.90
2018-08-04T08:45:52.767Z,99.90
2018-08-04T08:48:21.739Z,99.90
2018-08-04T08:50:50.693Z,99.90
2018-08-04T08:53:19.737Z,99.90
2018-08-04T08:55:48.545Z,99.90
2018-08-04T08:58:17.520Z,99.90
2018-08-04T09:00:46.438Z,99.90
2018-08-04T09:03:15.375Z,99.90
2018-08-04T09:05:44.298Z,99.90
2018-08-04T09:08:13.264Z,99.90
2018-08-04T09:10:42.211Z,99.90
2018-08-04T09:13:11.172Z,99.90
2018-08-04T09:15:40.157Z,99.90
2018-08-04T09:18:09.078Z,99.90
2018-08-04T09:20:38.030Z,99.90
2018-08-04T09:23:07.147Z,99.90
2018-08-04T09:25:36.064Z,99.90
2018-08-04T09:28:05.007Z,99.90
2018-08-04T09:30:33.976Z,99.90
2018-08-04T09:33:02.987Z,99.90
2018-08-04T09:38:00.543Z,99.90
2018-08-04T09:40:29.509Z,99.90
2018-08-04T09:42:58.466Z,99.90
2018-08-04T09:45:27.443Z,99.90
2018-08-04T09:47:56.852Z,99.90
2018-08-04T09:52:54.423Z,99.90
2018-08-04T09:55:23.362Z,99.90
2018-08-04T09:57:52.319Z,99.90
2018-08-04T10:00:27.243Z,99.90
2018-08-04T10:02:56.187Z,99.90
2018-08-04T10:05:25.156Z,99.90
2018-08-04T10:07:54.173Z,99.90
2018-08-04T10:10:23.091Z,99.90
2018-08-04T10:12:52.368Z,99.90
2018-08-04T10:15:21.315Z,99.90
2018-08-04T10:17:50.259Z,99.90
2018-08-04T10:20:19.279Z,99.90
2018-08-04T10:22:48.134Z,99.90
2018-08-04T10:25:17.119Z,99.90
2018-08-04T10:27:46.295Z,99.90
2018-08-04T10:30:15.265Z,99.90
2018-08-04T10:32:44.288Z,99.90
2018-08-04T10:35:13.380Z,99.90
2018-08-04T10:37:42.418Z,99.90
2018-08-04T10:40:11.355Z,99.90
2018-08-04T10:42:40.331Z,99.90
2018-08-04T10:45:09.283Z,99.90
2018-08-04T10:47:38.267Z,99.90
2018-08-04T10:50:07.327Z,99.90
2018-08-04T10:52:36.331Z,99.90
2018-08-04T10:55:05.327Z,99.90
2018-08-04T10:57:34.287Z,99.90
2018-08-04T11:00:03.259Z,99.90
2018-08-04T11:02:32.211Z,99.90
2018-08-04T11:05:01.221Z,99.90
2018-08-04T11:07:30.209Z,99.90
2018-08-04T11:09:59.182Z,99.90
2018-08-04T11:12:28.236Z,99.90
2018-08-04T11:14:57.223Z,99.90
2018-08-04T11:17:26.179Z,99.90
2018-08-04T11:19:55.154Z,99.90
2018-08-04T11:22:24.333Z,99.90
2018-08-04T11:24:53.271Z,99.90
2018-08-04T11:27:22.215Z,99.90
2018-08-04T11:29:51.184Z,99.90
2018-08-04T11:32:20.123Z,99.90
2018-08-04T11:34:49.071Z,99.90
2018-08-04T11:37:18.087Z,99.50
2018-08-04T11:39:46.996Z,99.50
2018-08-04T11:42:16.044Z,99.50
2018-08-04T11:44:44.978Z,99.80
2018-08-04T11:47:13.979Z,99.90
2018-08-04T11:49:42.946Z,99.70
2018-08-04T11:52:11.899Z,98.20
2018-08-04T11:54:40.922Z,97.70
2018-08-04T11:57:09.895Z,98.20
2018-08-04T11:59:38.834Z,98.30
2018-08-04T12:02:07.803Z,97.90
2018-08-04T12:04:36.824Z,97.60
2018-08-04T12:07:05.751Z,97.20
2018-08-04T12:09:34.722Z,97.00
2018-08-04T12:12:03.723Z,96.10
2018-08-04T12:14:32.732Z,96.50
2018-08-04T12:17:01.677Z,94.80
2018-08-04T12:19:30.650Z,93.00
2018-08-04T12:21:59.654Z,91.80
2018-08-04T12:24:28.747Z,91.70
2018-08-04T12:26:57.720Z,89.10
2018-08-04T12:29:26.704Z,90.60
2018-08-04T12:31:55.633Z,91.30
2018-08-04T12:34:24.643Z,90.60
2018-08-04T12:36:53.575Z,90.70
2018-08-04T12:39:22.519Z,90.60
2018-08-04T12:41:51.654Z,90.80
2018-08-04T12:44:20.664Z,90.50
2018-08-04T12:46:49.647Z,91.10
2018-08-04T12:49:18.624Z,90.90
2018-08-04T12:51:47.936Z,91.10
2018-08-04T12:54:16.962Z,91.40
2018-08-04T12:56:45.892Z,91.20
2018-08-04T12:59:14.857Z,91.40
2018-08-04T13:01:43.835Z,91.70
2018-08-04T13:04:12.867Z,91.90
2018-08-04T13:06:41.909Z,91.90
2018-08-04T13:09:11.425Z,91.90
2018-08-04T13:11:40.363Z,91.90
2018-08-04T13:14:09.334Z,91.90
2018-08-04T13:16:38.299Z,91.20
2018-08-04T13:19:07.327Z,90.40
2018-08-04T13:21:36.287Z,90.30
2018-08-04T13:29:02.656Z,88.00
2018-08-04T13:31:31.667Z,84.60
2018-08-04T13:34:00.620Z,84.40
2018-08-04T13:36:29.571Z,83.50
2018-08-04T13:38:58.531Z,82.10
2018-08-04T13:41:27.499Z,82.10
2018-08-04T13:43:56.495Z,81.70
2018-08-04T13:46:25.467Z,81.90
2018-08-04T13:48:54.603Z,82.40
2018-08-04T13:51:23.551Z,83.40
2018-08-04T13:53:52.498Z,82.30
2018-08-04T13:56:21.511Z,81.40
2018-08-04T13:58:50.503Z,82.80
2018-08-04T14:01:19.444Z,83.10
2018-08-04T14:03:48.728Z,82.80
2018-08-04T14:06:17.691Z,82.90
2018-08-04T14:08:46.674Z,83.70
2018-08-04T14:11:15.927Z,83.90
2018-08-04T14:13:44.916Z,82.70
2018-08-04T14:16:13.873Z,82.40
2018-08-04T14:21:18.270Z,82.00
2018-08-04T14:23:47.253Z,80.60
2018-08-04T14:26:16.199Z,79.70
2018-08-04T14:28:45.261Z,78.40
2018-08-04T14:31:14.160Z,77.20
2018-08-04T14:33:43.112Z,76.00
2018-08-04T14:36:12.083Z,75.80
2018-08-04T14:38:41.032Z,75.60
2018-08-04T14:41:10.086Z,74.60
2018-08-04T14:43:39.314Z,75.50
2018-08-04T14:48:37.311Z,73.50
2018-08-04T14:53:35.272Z,71.50
2018-08-04T14:58:33.080Z,73.00
2018-08-04T15:01:02.066Z,72.90
2018-08-04T15:03:31.022Z,70.00
2018-08-04T15:06:00.038Z,68.40
2018-08-04T15:08:29.028Z,69.60
2018-08-04T15:10:57.987Z,69.80
2018-08-04T15:13:26.930Z,69.20
2018-08-04T15:15:55.929Z,69.60
2018-08-04T15:18:24.959Z,67.40
2018-08-04T15:20:54.123Z,65.80
2018-08-04T15:23:23.113Z,66.20
2018-08-04T15:25:52.048Z,66.90
2018-08-04T15:28:20.995Z,67.00
2018-08-04T15:30:49.946Z,67.80
2018-08-04T15:33:18.999Z,67.00
2018-08-04T15:35:48.027Z,66.90
2018-08-04T15:38:17.021Z,67.20
2018-08-04T15:40:45.971Z,67.50
2018-08-04T15:43:14.996Z,64.60
2018-08-04T15:45:43.980Z,63.10
2018-08-04T15:48:12.963Z,62.80
2018-08-04T15:50:41.956Z,61.80
2018-08-04T15:53:10.874Z,61.30
2018-08-04T15:55:39.831Z,61.40
2018-08-04T15:58:08.810Z,59.70
2018-08-04T16:00:37.751Z,58.70
2018-08-04T16:03:06.903Z,58.40
2018-08-04T16:05:35.903Z,58.40
2018-08-04T16:08:05.138Z,58.10
2018-08-04T16:10:34.083Z,57.60
2018-08-04T16:13:03.039Z,57.10
2018-08-04T16:15:32.000Z,55.00
2018-08-04T16:18:00.968Z,54.90
2018-08-04T16:20:29.927Z,54.10
2018-08-04T16:22:59.154Z,53.60
2018-08-04T16:25:28.208Z,54.00
2018-08-04T16:27:57.216Z,53.90
2018-08-04T16:30:26.168Z,53.80
2018-08-04T16:32:55.171Z,53.40
2018-08-04T16:35:24.264Z,53.10
2018-08-04T16:37:53.226Z,53.70
2018-08-04T16:40:22.369Z,53.40
2018-08-04T16:42:51.323Z,54.70
2018-08-04T16:45:20.301Z,55.20
2018-08-04T16:47:49.279Z,55.40
2018-08-04T16:50:18.355Z,55.00
2018-08-04T16:52:47.400Z,54.80
2018-08-04T16:55:16.703Z,54.70
2018-08-04T16:57:45.711Z,53.90
2018-08-04T17:00:14.691Z,53.70
2018-08-04T17:02:43.715Z,52.20
2018-08-04T17:05:12.666Z,50.60
2018-08-04T17:07:41.632Z,49.90
2018-08-04T17:10:10.619Z,49.80
2018-08-04T17:12:39.576Z,49.50
2018-08-04T17:15:08.538Z,50.10
2018-08-04T17:17:37.583Z,48.90
2018-08-04T17:20:06.529Z,48.80
2018-08-04T17:22:35.523Z,49.60
2018-08-04T17:25:04.492Z,49.90
2018-08-04T17:27:33.713Z,49.30
2018-08-04T17:30:02.702Z,49.10
2018-08-04T17:32:31.899Z,49.00
2018-08-04T17:35:00.911Z,49.40
2018-08-04T17:37:30.050Z,50.10
2018-08-04T17:39:58.991Z,51.30
2018-08-04T17:42:28.440Z,53.10
2018-08-04T17:44:57.396Z,55.60
2018-08-04T17:47:26.562Z,56.90
2018-08-04T17:49:55.582Z,59.00
2018-08-04T17:52:24.590Z,60.70
2018-08-04T17:54:53.575Z,63.20
2018-08-04T17:57:22.833Z,65.20
2018-08-04T17:59:51.907Z,67.20
2018-08-04T18:02:20.913Z,69.10
2018-08-04T18:04:49.908Z,71.40
2018-08-04T18:07:19.103Z,73.10
2018-08-04T18:09:48.217Z,74.70
2018-08-04T18:12:17.279Z,76.60
2018-08-04T18:14:46.302Z,77.70
2018-08-04T18:17:15.409Z,80.10
2018-08-04T18:19:44.599Z,81.00
2018-08-04T18:22:13.820Z,82.60
2018-08-04T18:24:42.808Z,83.60
2018-08-04T18:27:12.121Z,86.20
2018-08-04T18:29:41.233Z,87.80
2018-08-04T18:32:10.781Z,89.60
2018-08-04T18:34:39.777Z,90.60
2018-08-04T18:37:08.775Z,91.50
2018-08-04T18:39:37.751Z,92.20
2018-08-04T18:42:06.884Z,93.00
2018-08-04T18:44:35.942Z,93.60
2018-08-04T18:49:33.542Z,94.80
2018-08-04T18:52:02.581Z,95.30
2018-08-04T18:54:32.547Z,96.00
2018-08-04T18:57:01.552Z,96.80
2018-08-04T19:02:00.608Z,99.90
2018-08-04T19:04:29.684Z,98.50
2018-08-04T19:06:59.943Z,99.90
2018-08-04T19:09:29.022Z,99.70
2018-08-04T19:11:57.975Z,99.90
2018-08-04T19:14:26.911Z,99.90
2018-08-04T19:16:55.906Z,99.90
2018-08-04T19:19:24.924Z,99.90
2018-08-04T19:21:53.875Z,99.90
2018-08-04T19:24:22.942Z,99.90
2018-08-04T19:26:51.923Z,99.90
2018-08-04T19:29:21.431Z,99.90
2018-08-04T19:34:19.493Z,99.90
2018-08-04T19:36:48.509Z,99.90
2018-08-04T19:39:17.520Z,99.90
2018-08-04T19:41:46.482Z,99.90
2018-08-04T19:44:15.464Z,99.90
2018-08-04T19:46:44.419Z,99.90
2018-08-04T19:49:13.537Z,99.90
2018-08-04T19:51:42.519Z,99.90
2018-08-04T19:54:11.536Z,99.90
2018-08-04T19:56:40.533Z,99.90
2018-08-04T19:59:09.500Z,99.90
2018-08-04T20:04:07.287Z,99.90
2018-08-04T20:06:37.285Z,99.90
2018-08-04T20:09:08.423Z,99.90
2018-08-04T20:11:37.395Z,99.90
2018-08-04T20:14:06.477Z,99.90
2018-08-04T20:16:35.433Z,99.90
2018-08-04T20:19:04.452Z,99.90
2018-08-04T20:21:34.005Z,99.90
2018-08-04T20:24:03.349Z,99.90
2018-08-04T20:26:32.350Z,99.90
2018-08-04T20:29:01.680Z,99.90
2018-08-04T20:31:30.735Z,99.90
2018-08-04T20:33:59.727Z,99.90
2018-08-04T20:36:28.687Z,99.90
2018-08-04T20:38:57.724Z,99.90
2018-08-04T20:41:26.739Z,99.90
2018-08-04T20:43:55.770Z,99.90
2018-08-04T20:46:24.699Z,99.90
2018-08-04T20:48:53.681Z,99.90
2018-08-04T20:51:23.898Z,99.90
2018-08-04T20:53:52.907Z,99.90
2018-08-04T20:56:21.844Z,99.90
2018-08-04T20:58:50.815Z,99.90
2018-08-04T21:01:31.143Z,99.90
2018-08-04T21:04:00.128Z,99.90
2018-08-04T21:06:29.103Z,99.90
2018-08-04T21:08:58.079Z,99.90
2018-08-04T21:11:27.030Z,99.90
2018-08-04T21:13:56.027Z,99.90
2018-08-04T21:16:25.011Z,99.90
2018-08-04T21:21:22.577Z,99.90
2018-08-04T21:23:51.569Z,99.90
2018-08-04T21:26:22.642Z,99.90
2018-08-04T21:28:51.787Z,99.90
2018-08-04T21:31:20.731Z,99.90
2018-08-04T21:33:49.690Z,99.90
2018-08-04T21:36:18.659Z,99.90
2018-08-04T21:38:47.959Z,99.90
2018-08-04T21:41:16.915Z,99.90
2018-08-04T21:43:45.895Z,99.90
2018-08-04T21:48:44.287Z,99.90
2018-08-04T21:51:13.250Z,99.90
2018-08-04T21:53:42.187Z,99.90
2018-08-04T21:56:11.282Z,99.90
2018-08-04T21:58:40.348Z,99.90
2018-08-04T22:01:13.073Z,99.90
2018-08-04T22:03:44.284Z,99.90
2018-08-04T22:06:13.633Z,99.90
2018-08-04T22:08:54.053Z,99.90
2018-08-04T22:11:22.995Z,99.90
2018-08-04T22:13:52.036Z,99.90
2018-08-04T22:16:21.036Z,99.90
2018-08-04T22:18:50.047Z,99.90
2018-08-04T22:21:19.035Z,99.90
2018-08-04T22:23:48.013Z,99.90
2018-08-04T22:26:16.959Z,99.90
2018-08-04T22:28:45.963Z,99.90
2018-08-04T22:31:14.897Z,99.90
2018-08-04T22:33:43.846Z,99.90
2018-08-04T22:36:12.778Z,99.90
2018-08-04T22:38:41.722Z,99.90
2018-08-04T22:41:10.688Z,99.90
2018-08-04T22:43:39.609Z,99.90
2018-08-04T22:46:14.905Z,99.90
2018-08-04T22:48:45.081Z,99.90
2018-08-04T22:51:14.056Z,99.90
2018-08-04T22:53:43.012Z,99.90
2018-08-04T22:56:11.946Z,99.90
2018-08-04T22:58:40.931Z,99.90
2018-08-04T23:01:09.916Z,99.90
2018-08-04T23:03:38.875Z,99.90
2018-08-04T23:06:07.804Z,99.90
2018-08-04T23:08:36.758Z,99.90
2018-08-04T23:11:05.715Z,99.90
2018-08-04T23:13:34.683Z,99.90
2018-08-04T23:16:03.643Z,99.90
2018-08-04T23:18:32.572Z,99.90
2018-08-04T23:21:01.600Z,99.90
2018-08-04T23:23:30.550Z,99.90
2018-08-04T23:25:59.525Z,99.90
2018-08-04T23:28:28.479Z,99.90
2018-08-04T23:30:57.440Z,99.90
2018-08-04T23:33:26.403Z,99.90
2018-08-04T23:35:55.320Z,99.90
2018-08-04T23:38:24.330Z,99.90
2018-08-04T23:40:53.307Z,99.90
2018-08-04T23:43:22.254Z,99.90
2018-08-04T23:45:51.195Z,99.90
2018-08-04T23:48:20.189Z,99.90
2018-08-04T23:50:49.143Z,99.90
2018-08-04T23:53:18.090Z,99.90
2018-08-04T23:55:47.182Z,99.90
2018-08-04T23:58:16.138Z,99.90
